sensor_id;sensor_type;location;lat;lon;timestamp;P1;durP1;ratioP1;P2;durP2;ratioP2
36379;SDS011;22411;53.016;18.632;2022-09-09T00:04:14;7.10;;;3.60;;
36379;SDS011;22411;53.016;18.632;2022-09-09T00:07:13;6.00;;;3.67;;
36379;SDS011;22411;53.016;18.632;2022-09-09T00:09:50;6.57;;;3.75;;
36379;SDS011;22411;53.016;18.632;2022-09-09T00:15:14;9.73;;;4.70;;
36379;SDS011;22411;53.016;18.632;2022-09-09T00:23:14;6.50;;;4.57;;
36379;SDS011;22411;53.016;18.632;2022-09-09T00:31:28;8.93;;;4.70;;
36379;SDS011;22411;53.016;18.632;2022-09-09T00:33:55;8.27;;;3.92;;
36379;SDS011;22411;53.016;18.632;2022-09-09T00:36:28;5.57;;;4.40;;
36379;SDS011;22411;53.016;18.632;2022-09-09T00:38:59;8.43;;;3.87;;
36379;SDS011;22411;53.016;18.632;2022-09-09T00:50:02;8.20;;;4.60;;
36379;SDS011;22411;53.016;18.632;2022-09-09T00:52:49;7.18;;;4.57;;
36379;SDS011;22411;53.016;18.632;2022-09-09T00:55:48;4.22;;;3.83;;
36379;SDS011;22411;53.016;18.632;2022-09-09T00:58:21;9.43;;;5.38;;
36379;SDS011;22411;53.016;18.632;2022-09-09T01:00:51;6.60;;;5.03;;
36379;SDS011;22411;53.016;18.632;2022-09-09T01:03:30;9.10;;;4.95;;
36379;SDS011;22411;53.016;18.632;2022-09-09T01:11:04;9.05;;;4.82;;
36379;SDS011;22411;53.016;18.632;2022-09-09T01:13:33;6.90;;;5.88;;
36379;SDS011;22411;53.016;18.632;2022-09-09T01:16:03;6.53;;;5.03;;
36379;SDS011;22411;53.016;18.632;2022-09-09T01:18:43;10.70;;;6.47;;
36379;SDS011;22411;53.016;18.632;2022-09-09T01:26:48;8.65;;;5.72;;
36379;SDS011;22411;53.016;18.632;2022-09-09T01:29:17;8.68;;;6.22;;
36379;SDS011;22411;53.016;18.632;2022-09-09T01:31:53;5.13;;;4.63;;
36379;SDS011;22411;53.016;18.632;2022-09-09T01:34:26;8.75;;;7.20;;
36379;SDS011;22411;53.016;18.632;2022-09-09T01:37:08;8.82;;;5.78;;
36379;SDS011;22411;53.016;18.632;2022-09-09T01:39:38;6.47;;;5.88;;
36379;SDS011;22411;53.016;18.632;2022-09-09T01:42:07;7.38;;;6.63;;
36379;SDS011;22411;53.016;18.632;2022-09-09T01:44:36;10.10;;;7.35;;
36379;SDS011;22411;53.016;18.632;2022-09-09T01:47:03;11.50;;;8.95;;
36379;SDS011;22411;53.016;18.632;2022-09-09T01:49:30;9.23;;;7.40;;
36379;SDS011;22411;53.016;18.632;2022-09-09T01:51:58;10.23;;;7.90;;
36379;SDS011;22411;53.016;18.632;2022-09-09T01:54:26;9.05;;;8.15;;
36379;SDS011;22411;53.016;18.632;2022-09-09T02:05:38;7.70;;;5.97;;
36379;SDS011;22411;53.016;18.632;2022-09-09T02:08:37;12.95;;;7.05;;
36379;SDS011;22411;53.016;18.632;2022-09-09T02:11:06;7.32;;;6.57;;
36379;SDS011;22411;53.016;18.632;2022-09-09T02:13:38;6.90;;;5.55;;
36379;SDS011;22411;53.016;18.632;2022-09-09T02:18:40;10.82;;;6.38;;
36379;SDS011;22411;53.016;18.632;2022-09-09T02:21:13;9.52;;;5.72;;
36379;SDS011;22411;53.016;18.632;2022-09-09T02:23:41;7.78;;;6.50;;
36379;SDS011;22411;53.016;18.632;2022-09-09T02:26:11;6.07;;;5.35;;
36379;SDS011;22411;53.016;18.632;2022-09-09T02:28:45;6.93;;;5.82;;
36379;SDS011;22411;53.016;18.632;2022-09-09T02:31:13;6.63;;;5.95;;
36379;SDS011;22411;53.016;18.632;2022-09-09T02:33:44;6.93;;;5.63;;
36379;SDS011;22411;53.016;18.632;2022-09-09T02:36:18;9.10;;;6.10;;
36379;SDS011;22411;53.016;18.632;2022-09-09T02:38:47;7.32;;;5.75;;
36379;SDS011;22411;53.016;18.632;2022-09-09T02:41:23;9.68;;;5.63;;
36379;SDS011;22411;53.016;18.632;2022-09-09T02:43:53;8.20;;;5.70;;
36379;SDS011;22411;53.016;18.632;2022-09-09T02:49:00;7.40;;;5.63;;
36379;SDS011;22411;53.016;18.632;2022-09-09T02:54:17;8.13;;;6.53;;
36379;SDS011;22411;53.016;18.632;2022-09-09T02:56:52;6.43;;;5.82;;
36379;SDS011;22411;53.016;18.632;2022-09-09T02:59:20;10.00;;;6.18;;
36379;SDS011;22411;53.016;18.632;2022-09-09T03:01:47;8.07;;;6.28;;
36379;SDS011;22411;53.016;18.632;2022-09-09T03:04:13;8.93;;;6.38;;
36379;SDS011;22411;53.016;18.632;2022-09-09T03:06:39;7.97;;;6.43;;
36379;SDS011;22411;53.016;18.632;2022-09-09T03:09:05;9.98;;;7.15;;
36379;SDS011;22411;53.016;18.632;2022-09-09T03:11:31;9.07;;;6.88;;
36379;SDS011;22411;53.016;18.632;2022-09-09T03:13:56;7.55;;;6.57;;
36379;SDS011;22411;53.016;18.632;2022-09-09T03:16:22;11.77;;;7.45;;
36379;SDS011;22411;53.016;18.632;2022-09-09T03:18:49;9.32;;;6.90;;
36379;SDS011;22411;53.016;18.632;2022-09-09T03:21:15;8.23;;;7.13;;
36379;SDS011;22411;53.016;18.632;2022-09-09T03:23:41;11.65;;;7.15;;
36379;SDS011;22411;53.016;18.632;2022-09-09T03:26:07;7.00;;;6.32;;
36379;SDS011;22411;53.016;18.632;2022-09-09T03:28:33;8.48;;;6.20;;
36379;SDS011;22411;53.016;18.632;2022-09-09T03:30:59;7.18;;;6.47;;
36379;SDS011;22411;53.016;18.632;2022-09-09T03:33:27;7.55;;;6.47;;
36379;SDS011;22411;53.016;18.632;2022-09-09T03:35:53;8.60;;;7.05;;
36379;SDS011;22411;53.016;18.632;2022-09-09T03:38:22;9.43;;;6.95;;
36379;SDS011;22411;53.016;18.632;2022-09-09T03:40:52;8.38;;;6.75;;
36379;SDS011;22411;53.016;18.632;2022-09-09T03:43:26;8.88;;;6.88;;
36379;SDS011;22411;53.016;18.632;2022-09-09T03:45:53;7.28;;;6.13;;
36379;SDS011;22411;53.016;18.632;2022-09-09T03:48:22;6.70;;;5.85;;
36379;SDS011;22411;53.016;18.632;2022-09-09T03:50:51;8.93;;;7.40;;
36379;SDS011;22411;53.016;18.632;2022-09-09T03:53:19;8.57;;;7.70;;
36379;SDS011;22411;53.016;18.632;2022-09-09T03:55:47;8.90;;;7.70;;
36379;SDS011;22411;53.016;18.632;2022-09-09T03:58:21;9.60;;;7.25;;
36379;SDS011;22411;53.016;18.632;2022-09-09T04:00:52;10.27;;;7.38;;
36379;SDS011;22411;53.016;18.632;2022-09-09T04:03:25;8.60;;;6.63;;
36379;SDS011;22411;53.016;18.632;2022-09-09T04:05:52;10.57;;;7.93;;
36379;SDS011;22411;53.016;18.632;2022-09-09T04:08:21;9.32;;;7.15;;
36379;SDS011;22411;53.016;18.632;2022-09-09T04:10:48;8.50;;;7.00;;
36379;SDS011;22411;53.016;18.632;2022-09-09T04:13:15;11.50;;;8.13;;
36379;SDS011;22411;53.016;18.632;2022-09-09T04:16:02;9.57;;;8.23;;
36379;SDS011;22411;53.016;18.632;2022-09-09T04:18:29;8.82;;;7.97;;
36379;SDS011;22411;53.016;18.632;2022-09-09T04:20:55;14.68;;;9.38;;
36379;SDS011;22411;53.016;18.632;2022-09-09T04:23:25;10.50;;;8.30;;
36379;SDS011;22411;53.016;18.632;2022-09-09T04:25:54;9.75;;;8.73;;
36379;SDS011;22411;53.016;18.632;2022-09-09T04:28:22;9.27;;;7.70;;
36379;SDS011;22411;53.016;18.632;2022-09-09T04:30:50;13.77;;;8.55;;
36379;SDS011;22411;53.016;18.632;2022-09-09T04:33:18;13.05;;;9.55;;
36379;SDS011;22411;53.016;18.632;2022-09-09T04:35:45;11.23;;;9.60;;
36379;SDS011;22411;53.016;18.632;2022-09-09T04:38:13;10.85;;;9.73;;
36379;SDS011;22411;53.016;18.632;2022-09-09T04:40:39;13.75;;;9.27;;
36379;SDS011;22411;53.016;18.632;2022-09-09T04:43:08;11.88;;;9.75;;
36379;SDS011;22411;53.016;18.632;2022-09-09T04:45:34;10.23;;;8.93;;
36379;SDS011;22411;53.016;18.632;2022-09-09T04:48:01;10.23;;;8.18;;
36379;SDS011;22411;53.016;18.632;2022-09-09T04:50:28;12.27;;;9.75;;
36379;SDS011;22411;53.016;18.632;2022-09-09T04:52:53;12.70;;;9.30;;
36379;SDS011;22411;53.016;18.632;2022-09-09T04:55:19;14.82;;;9.60;;
36379;SDS011;22411;53.016;18.632;2022-09-09T04:57:45;15.45;;;10.05;;
36379;SDS011;22411;53.016;18.632;2022-09-09T05:00:11;11.55;;;10.18;;
36379;SDS011;22411;53.016;18.632;2022-09-09T05:02:39;11.90;;;9.00;;
36379;SDS011;22411;53.016;18.632;2022-09-09T05:05:06;15.15;;;10.45;;
36379;SDS011;22411;53.016;18.632;2022-09-09T05:07:32;10.38;;;8.80;;
36379;SDS011;22411;53.016;18.632;2022-09-09T05:09:58;13.10;;;10.40;;
36379;SDS011;22411;53.016;18.632;2022-09-09T05:12:24;12.98;;;9.85;;
36379;SDS011;22411;53.016;18.632;2022-09-09T05:14:51;11.25;;;9.90;;
36379;SDS011;22411;53.016;18.632;2022-09-09T05:17:17;12.75;;;10.18;;
36379;SDS011;22411;53.016;18.632;2022-09-09T05:19:43;13.02;;;9.82;;
36379;SDS011;22411;53.016;18.632;2022-09-09T05:22:09;10.48;;;9.40;;
36379;SDS011;22411;53.016;18.632;2022-09-09T05:24:37;17.42;;;10.35;;
36379;SDS011;22411;53.016;18.632;2022-09-09T05:27:04;11.52;;;9.68;;
36379;SDS011;22411;53.016;18.632;2022-09-09T05:29:31;12.07;;;9.27;;
36379;SDS011;22411;53.016;18.632;2022-09-09T05:32:00;16.35;;;11.02;;
36379;SDS011;22411;53.016;18.632;2022-09-09T05:34:26;14.68;;;9.88;;
36379;SDS011;22411;53.016;18.632;2022-09-09T05:36:52;16.73;;;10.52;;
36379;SDS011;22411;53.016;18.632;2022-09-09T05:39:19;12.27;;;10.05;;
36379;SDS011;22411;53.016;18.632;2022-09-09T05:41:44;18.13;;;10.80;;
36379;SDS011;22411;53.016;18.632;2022-09-09T05:44:10;14.25;;;10.82;;
36379;SDS011;22411;53.016;18.632;2022-09-09T05:46:36;16.48;;;11.35;;
36379;SDS011;22411;53.016;18.632;2022-09-09T05:49:03;18.13;;;10.88;;
36379;SDS011;22411;53.016;18.632;2022-09-09T05:51:30;17.65;;;12.10;;
36379;SDS011;22411;53.016;18.632;2022-09-09T05:53:57;16.95;;;11.25;;
36379;SDS011;22411;53.016;18.632;2022-09-09T05:56:29;16.80;;;12.63;;
36379;SDS011;22411;53.016;18.632;2022-09-09T05:58:55;15.88;;;12.05;;
36379;SDS011;22411;53.016;18.632;2022-09-09T06:03:50;17.35;;;11.25;;
36379;SDS011;22411;53.016;18.632;2022-09-09T06:06:18;20.23;;;11.68;;
36379;SDS011;22411;53.016;18.632;2022-09-09T06:08:46;15.38;;;12.15;;
36379;SDS011;22411;53.016;18.632;2022-09-09T06:11:14;17.20;;;12.10;;
36379;SDS011;22411;53.016;18.632;2022-09-09T06:13:41;18.65;;;13.02;;
36379;SDS011;22411;53.016;18.632;2022-09-09T06:16:12;17.58;;;12.50;;
36379;SDS011;22411;53.016;18.632;2022-09-09T06:18:39;16.60;;;12.30;;
36379;SDS011;22411;53.016;18.632;2022-09-09T06:21:08;16.23;;;11.95;;
36379;SDS011;22411;53.016;18.632;2022-09-09T06:23:41;21.40;;;13.10;;
36379;SDS011;22411;53.016;18.632;2022-09-09T06:26:11;17.58;;;12.63;;
36379;SDS011;22411;53.016;18.632;2022-09-09T06:28:39;20.08;;;12.32;;
36379;SDS011;22411;53.016;18.632;2022-09-09T06:31:06;22.13;;;12.68;;
36379;SDS011;22411;53.016;18.632;2022-09-09T06:33:34;13.55;;;11.80;;
36379;SDS011;22411;53.016;18.632;2022-09-09T06:36:28;18.92;;;13.68;;
36379;SDS011;22411;53.016;18.632;2022-09-09T06:38:56;18.48;;;11.90;;
36379;SDS011;22411;53.016;18.632;2022-09-09T06:41:24;20.17;;;12.80;;
36379;SDS011;22411;53.016;18.632;2022-09-09T06:43:53;24.58;;;13.45;;
36379;SDS011;22411;53.016;18.632;2022-09-09T06:46:22;19.00;;;13.05;;
36379;SDS011;22411;53.016;18.632;2022-09-09T06:48:49;15.77;;;11.88;;
36379;SDS011;22411;53.016;18.632;2022-09-09T06:53:43;23.88;;;13.73;;
36379;SDS011;22411;53.016;18.632;2022-09-09T06:56:28;19.17;;;12.07;;
36379;SDS011;22411;53.016;18.632;2022-09-09T06:58:56;17.58;;;11.73;;
36379;SDS011;22411;53.016;18.632;2022-09-09T07:01:28;24.45;;;14.55;;
36379;SDS011;22411;53.016;18.632;2022-09-09T07:03:56;21.70;;;13.98;;
36379;SDS011;22411;53.016;18.632;2022-09-09T07:06:28;20.08;;;12.88;;
36379;SDS011;22411;53.016;18.632;2022-09-09T07:08:59;21.17;;;13.73;;
36379;SDS011;22411;53.016;18.632;2022-09-09T07:11:27;22.80;;;14.15;;
36379;SDS011;22411;53.016;18.632;2022-09-09T07:13:56;23.20;;;14.15;;
36379;SDS011;22411;53.016;18.632;2022-09-09T07:16:23;23.90;;;13.38;;
36379;SDS011;22411;53.016;18.632;2022-09-09T07:18:50;19.63;;;13.43;;
36379;SDS011;22411;53.016;18.632;2022-09-09T07:21:16;20.25;;;13.20;;
36379;SDS011;22411;53.016;18.632;2022-09-09T07:23:43;20.13;;;13.85;;
36379;SDS011;22411;53.016;18.632;2022-09-09T07:26:12;23.15;;;14.60;;
36379;SDS011;22411;53.016;18.632;2022-09-09T07:28:44;23.33;;;14.40;;
36379;SDS011;22411;53.016;18.632;2022-09-09T07:31:15;24.33;;;14.27;;
36379;SDS011;22411;53.016;18.632;2022-09-09T07:36:10;27.13;;;15.75;;
36379;SDS011;22411;53.016;18.632;2022-09-09T07:38:39;24.42;;;15.95;;
36379;SDS011;22411;53.016;18.632;2022-09-09T07:41:07;25.33;;;15.77;;
36379;SDS011;22411;53.016;18.632;2022-09-09T07:43:38;23.23;;;14.88;;
36379;SDS011;22411;53.016;18.632;2022-09-09T07:46:05;26.23;;;14.82;;
36379;SDS011;22411;53.016;18.632;2022-09-09T07:48:32;24.50;;;15.63;;
36379;SDS011;22411;53.016;18.632;2022-09-09T07:51:03;25.50;;;15.40;;
36379;SDS011;22411;53.016;18.632;2022-09-09T07:53:29;21.63;;;14.15;;
36379;SDS011;22411;53.016;18.632;2022-09-09T07:56:02;20.42;;;15.02;;
36379;SDS011;22411;53.016;18.632;2022-09-09T07:58:28;24.63;;;15.07;;
36379;SDS011;22411;53.016;18.632;2022-09-09T08:00:54;30.33;;;17.73;;
36379;SDS011;22411;53.016;18.632;2022-09-09T08:03:20;27.70;;;16.98;;
36379;SDS011;22411;53.016;18.632;2022-09-09T08:05:47;25.40;;;15.70;;
36379;SDS011;22411;53.016;18.632;2022-09-09T08:08:13;23.75;;;14.60;;
36379;SDS011;22411;53.016;18.632;2022-09-09T08:10:39;22.95;;;15.95;;
36379;SDS011;22411;53.016;18.632;2022-09-09T08:13:04;24.50;;;16.58;;
36379;SDS011;22411;53.016;18.632;2022-09-09T08:15:31;25.65;;;15.88;;
36379;SDS011;22411;53.016;18.632;2022-09-09T08:17:57;29.73;;;16.58;;
36379;SDS011;22411;53.016;18.632;2022-09-09T08:20:23;26.08;;;16.05;;
36379;SDS011;22411;53.016;18.632;2022-09-09T08:22:49;25.13;;;16.50;;
36379;SDS011;22411;53.016;18.632;2022-09-09T08:25:15;26.38;;;15.98;;
36379;SDS011;22411;53.016;18.632;2022-09-09T08:27:41;30.58;;;17.58;;
36379;SDS011;22411;53.016;18.632;2022-09-09T08:30:07;31.60;;;19.23;;
36379;SDS011;22411;53.016;18.632;2022-09-09T08:32:33;27.52;;;16.48;;
36379;SDS011;22411;53.016;18.632;2022-09-09T08:35:00;27.25;;;16.75;;
36379;SDS011;22411;53.016;18.632;2022-09-09T08:37:26;25.13;;;16.38;;
36379;SDS011;22411;53.016;18.632;2022-09-09T08:39:52;29.02;;;17.35;;
36379;SDS011;22411;53.016;18.632;2022-09-09T08:50:26;26.58;;;16.27;;
36379;SDS011;22411;53.016;18.632;2022-09-09T08:53:04;24.10;;;15.85;;
36379;SDS011;22411;53.016;18.632;2022-09-09T09:03:24;35.85;;;18.17;;
36379;SDS011;22411;53.016;18.632;2022-09-09T09:09:06;26.15;;;15.85;;
36379;SDS011;22411;53.016;18.632;2022-09-09T09:11:38;28.20;;;16.95;;
36379;SDS011;22411;53.016;18.632;2022-09-09T09:14:09;28.98;;;16.58;;
36379;SDS011;22411;53.016;18.632;2022-09-09T09:19:33;29.02;;;16.67;;
36379;SDS011;22411;53.016;18.632;2022-09-09T09:22:44;24.30;;;16.70;;
36379;SDS011;22411;53.016;18.632;2022-09-09T09:30:23;27.48;;;17.17;;
36379;SDS011;22411;53.016;18.632;2022-09-09T09:32:54;32.33;;;17.88;;
36379;SDS011;22411;53.016;18.632;2022-09-09T09:35:23;35.40;;;18.00;;
36379;SDS011;22411;53.016;18.632;2022-09-09T09:37:49;24.67;;;16.90;;
36379;SDS011;22411;53.016;18.632;2022-09-09T09:40:17;25.13;;;17.52;;
36379;SDS011;22411;53.016;18.632;2022-09-09T09:42:48;32.13;;;18.25;;
36379;SDS011;22411;53.016;18.632;2022-09-09T09:45:16;29.58;;;18.70;;
36379;SDS011;22411;53.016;18.632;2022-09-09T09:47:59;29.60;;;17.02;;
36379;SDS011;22411;53.016;18.632;2022-09-09T09:50:27;29.27;;;18.02;;
36379;SDS011;22411;53.016;18.632;2022-09-09T09:52:57;31.02;;;19.30;;
36379;SDS011;22411;53.016;18.632;2022-09-09T09:55:32;27.58;;;17.50;;
36379;SDS011;22411;53.016;18.632;2022-09-09T09:58:04;27.90;;;18.17;;
36379;SDS011;22411;53.016;18.632;2022-09-09T10:00:31;31.73;;;19.63;;
36379;SDS011;22411;53.016;18.632;2022-09-09T10:03:00;33.22;;;20.60;;
36379;SDS011;22411;53.016;18.632;2022-09-09T10:05:28;28.20;;;18.85;;
36379;SDS011;22411;53.016;18.632;2022-09-09T10:16:13;32.85;;;20.42;;
36379;SDS011;22411;53.016;18.632;2022-09-09T10:26:58;34.33;;;21.42;;
36379;SDS011;22411;53.016;18.632;2022-09-09T10:34:56;32.47;;;20.98;;
36379;SDS011;22411;53.016;18.632;2022-09-09T10:40:02;35.40;;;22.25;;
36379;SDS011;22411;53.016;18.632;2022-09-09T10:42:44;41.75;;;23.30;;
36379;SDS011;22411;53.016;18.632;2022-09-09T10:45:32;35.45;;;22.20;;
36379;SDS011;22411;53.016;18.632;2022-09-09T10:50:42;37.97;;;22.95;;
36379;SDS011;22411;53.016;18.632;2022-09-09T10:56:25;32.05;;;20.60;;
36379;SDS011;22411;53.016;18.632;2022-09-09T10:58:53;39.67;;;23.67;;
36379;SDS011;22411;53.016;18.632;2022-09-09T11:01:22;38.20;;;24.80;;
36379;SDS011;22411;53.016;18.632;2022-09-09T11:03:55;41.00;;;24.30;;
36379;SDS011;22411;53.016;18.632;2022-09-09T11:06:37;41.58;;;23.23;;
36379;SDS011;22411;53.016;18.632;2022-09-09T11:09:09;42.90;;;23.52;;
36379;SDS011;22411;53.016;18.632;2022-09-09T11:17:15;36.13;;;22.70;;
36379;SDS011;22411;53.016;18.632;2022-09-09T11:19:45;36.95;;;23.70;;
36379;SDS011;22411;53.016;18.632;2022-09-09T11:24:51;38.95;;;23.20;;
36379;SDS011;22411;53.016;18.632;2022-09-09T11:27:32;38.30;;;24.58;;
36379;SDS011;22411;53.016;18.632;2022-09-09T11:40:27;35.97;;;22.73;;
36379;SDS011;22411;53.016;18.632;2022-09-09T11:43:03;39.58;;;23.50;;
36379;SDS011;22411;53.016;18.632;2022-09-09T11:45:53;36.22;;;23.50;;
36379;SDS011;22411;53.016;18.632;2022-09-09T11:53:54;33.75;;;21.83;;
36379;SDS011;22411;53.016;18.632;2022-09-09T11:59:19;36.08;;;21.00;;
36379;SDS011;22411;53.016;18.632;2022-09-09T12:01:54;34.30;;;20.98;;
36379;SDS011;22411;53.016;18.632;2022-09-09T12:06:53;29.77;;;19.88;;
36379;SDS011;22411;53.016;18.632;2022-09-09T12:09:36;31.40;;;19.73;;
36379;SDS011;22411;53.016;18.632;2022-09-09T12:14:43;29.40;;;19.45;;
36379;SDS011;22411;53.016;18.632;2022-09-09T12:17:24;25.27;;;17.10;;
36379;SDS011;22411;53.016;18.632;2022-09-09T12:20:11;25.55;;;18.38;;
36379;SDS011;22411;53.016;18.632;2022-09-09T12:25:41;21.05;;;15.27;;
36379;SDS011;22411;53.016;18.632;2022-09-09T12:33:13;23.13;;;15.68;;
36379;SDS011;22411;53.016;18.632;2022-09-09T12:35:45;21.30;;;15.88;;
36379;SDS011;22411;53.016;18.632;2022-09-09T12:38:42;23.42;;;15.93;;
36379;SDS011;22411;53.016;18.632;2022-09-09T12:41:21;21.83;;;15.98;;
36379;SDS011;22411;53.016;18.632;2022-09-09T12:48:59;20.70;;;15.57;;
36379;SDS011;22411;53.016;18.632;2022-09-09T12:51:28;19.88;;;15.48;;
36379;SDS011;22411;53.016;18.632;2022-09-09T12:53:59;20.73;;;15.73;;
36379;SDS011;22411;53.016;18.632;2022-09-09T12:56:32;20.95;;;13.68;;
36379;SDS011;22411;53.016;18.632;2022-09-09T12:58:59;23.25;;;14.50;;
36379;SDS011;22411;53.016;18.632;2022-09-09T13:01:29;22.13;;;15.60;;
36379;SDS011;22411;53.016;18.632;2022-09-09T13:03:57;18.67;;;14.30;;
36379;SDS011;22411;53.016;18.632;2022-09-09T13:06:27;21.80;;;14.73;;
36379;SDS011;22411;53.016;18.632;2022-09-09T13:08:56;20.98;;;15.38;;
36379;SDS011;22411;53.016;18.632;2022-09-09T13:13:56;18.95;;;14.18;;
36379;SDS011;22411;53.016;18.632;2022-09-09T13:19:08;18.90;;;13.02;;
36379;SDS011;22411;53.016;18.632;2022-09-09T13:21:39;17.08;;;12.35;;
36379;SDS011;22411;53.016;18.632;2022-09-09T13:24:06;14.27;;;12.00;;
36379;SDS011;22411;53.016;18.632;2022-09-09T13:26:57;16.63;;;12.60;;
36379;SDS011;22411;53.016;18.632;2022-09-09T13:29:50;18.13;;;13.05;;
36379;SDS011;22411;53.016;18.632;2022-09-09T13:32:21;21.23;;;13.02;;
36379;SDS011;22411;53.016;18.632;2022-09-09T13:34:51;15.90;;;11.93;;
36379;SDS011;22411;53.016;18.632;2022-09-09T13:37:37;15.32;;;12.05;;
36379;SDS011;22411;53.016;18.632;2022-09-09T13:40:06;17.58;;;13.52;;
36379;SDS011;22411;53.016;18.632;2022-09-09T13:42:44;16.27;;;13.60;;
36379;SDS011;22411;53.016;18.632;2022-09-09T13:45:15;14.80;;;11.32;;
36379;SDS011;22411;53.016;18.632;2022-09-09T13:47:47;15.30;;;12.88;;
36379;SDS011;22411;53.016;18.632;2022-09-09T13:50:18;14.85;;;12.65;;
36379;SDS011;22411;53.016;18.632;2022-09-09T13:52:49;18.58;;;13.18;;
36379;SDS011;22411;53.016;18.632;2022-09-09T13:55:24;21.65;;;13.13;;
36379;SDS011;22411;53.016;18.632;2022-09-09T13:57:59;17.98;;;11.77;;
36379;SDS011;22411;53.016;18.632;2022-09-09T14:00:28;15.95;;;11.93;;
36379;SDS011;22411;53.016;18.632;2022-09-09T14:02:56;16.40;;;12.68;;
36379;SDS011;22411;53.016;18.632;2022-09-09T14:05:22;19.38;;;12.98;;
36379;SDS011;22411;53.016;18.632;2022-09-09T14:07:49;17.17;;;12.48;;
36379;SDS011;22411;53.016;18.632;2022-09-09T14:10:15;14.05;;;11.60;;
36379;SDS011;22411;53.016;18.632;2022-09-09T14:12:41;18.17;;;12.38;;
36379;SDS011;22411;53.016;18.632;2022-09-09T14:15:08;13.27;;;11.18;;
36379;SDS011;22411;53.016;18.632;2022-09-09T14:17:35;14.60;;;10.85;;
36379;SDS011;22411;53.016;18.632;2022-09-09T14:20:04;15.45;;;10.55;;
36379;SDS011;22411;53.016;18.632;2022-09-09T14:22:35;16.25;;;11.57;;
36379;SDS011;22411;53.016;18.632;2022-09-09T14:25:02;12.80;;;10.30;;
36379;SDS011;22411;53.016;18.632;2022-09-09T14:27:28;13.18;;;10.65;;
36379;SDS011;22411;53.016;18.632;2022-09-09T14:29:55;16.38;;;11.05;;
36379;SDS011;22411;53.016;18.632;2022-09-09T14:32:22;12.93;;;10.45;;
36379;SDS011;22411;53.016;18.632;2022-09-09T14:34:48;10.38;;;9.20;;
36379;SDS011;22411;53.016;18.632;2022-09-09T14:37:18;17.67;;;11.10;;
36379;SDS011;22411;53.016;18.632;2022-09-09T14:39:44;10.70;;;9.35;;
36379;SDS011;22411;53.016;18.632;2022-09-09T14:42:12;11.85;;;9.55;;
36379;SDS011;22411;53.016;18.632;2022-09-09T14:44:39;11.27;;;9.20;;
36379;SDS011;22411;53.016;18.632;2022-09-09T14:47:06;14.35;;;10.60;;
36379;SDS011;22411;53.016;18.632;2022-09-09T14:49:36;12.85;;;9.70;;
36379;SDS011;22411;53.016;18.632;2022-09-09T14:52:03;10.77;;;9.65;;
36379;SDS011;22411;53.016;18.632;2022-09-09T14:54:30;11.45;;;10.10;;
36379;SDS011;22411;53.016;18.632;2022-09-09T14:56:57;11.27;;;8.93;;
36379;SDS011;22411;53.016;18.632;2022-09-09T14:59:24;9.95;;;8.88;;
36379;SDS011;22411;53.016;18.632;2022-09-09T15:01:50;12.10;;;9.40;;
36379;SDS011;22411;53.016;18.632;2022-09-09T15:04:16;15.32;;;10.82;;
36379;SDS011;22411;53.016;18.632;2022-09-09T15:06:42;11.30;;;10.10;;
36379;SDS011;22411;53.016;18.632;2022-09-09T15:09:12;14.02;;;10.07;;
36379;SDS011;22411;53.016;18.632;2022-09-09T15:11:38;11.88;;;10.15;;
36379;SDS011;22411;53.016;18.632;2022-09-09T15:14:08;11.30;;;8.98;;
36379;SDS011;22411;53.016;18.632;2022-09-09T15:16:34;11.88;;;9.00;;
36379;SDS011;22411;53.016;18.632;2022-09-09T15:19:01;13.88;;;9.77;;
36379;SDS011;22411;53.016;18.632;2022-09-09T15:21:29;13.13;;;9.48;;
36379;SDS011;22411;53.016;18.632;2022-09-09T15:23:57;10.95;;;9.40;;
36379;SDS011;22411;53.016;18.632;2022-09-09T15:26:25;12.15;;;9.80;;
36379;SDS011;22411;53.016;18.632;2022-09-09T15:28:54;14.88;;;10.73;;
36379;SDS011;22411;53.016;18.632;2022-09-09T15:31:26;14.75;;;10.45;;
36379;SDS011;22411;53.016;18.632;2022-09-09T15:33:58;13.48;;;11.10;;
36379;SDS011;22411;53.016;18.632;2022-09-09T15:36:32;13.65;;;11.73;;
36379;SDS011;22411;53.016;18.632;2022-09-09T15:39:06;14.73;;;12.05;;
36379;SDS011;22411;53.016;18.632;2022-09-09T15:41:41;16.33;;;14.05;;
36379;SDS011;22411;53.016;18.632;2022-09-09T15:44:15;17.65;;;14.18;;
36379;SDS011;22411;53.016;18.632;2022-09-09T15:46:42;17.48;;;14.35;;
36379;SDS011;22411;53.016;18.632;2022-09-09T15:49:23;19.90;;;14.45;;
36379;SDS011;22411;53.016;18.632;2022-09-09T15:51:55;17.92;;;14.98;;
36379;SDS011;22411;53.016;18.632;2022-09-09T15:54:25;20.13;;;15.30;;
36379;SDS011;22411;53.016;18.632;2022-09-09T15:56:53;20.23;;;15.70;;
36379;SDS011;22411;53.016;18.632;2022-09-09T15:59:24;22.48;;;16.08;;
36379;SDS011;22411;53.016;18.632;2022-09-09T16:01:56;20.35;;;16.52;;
36379;SDS011;22411;53.016;18.632;2022-09-09T16:04:26;21.52;;;17.17;;
36379;SDS011;22411;53.016;18.632;2022-09-09T16:06:56;23.92;;;18.13;;
36379;SDS011;22411;53.016;18.632;2022-09-09T16:09:25;20.50;;;16.55;;
36379;SDS011;22411;53.016;18.632;2022-09-09T16:11:52;23.35;;;17.70;;
36379;SDS011;22411;53.016;18.632;2022-09-09T16:14:19;26.40;;;18.65;;
36379;SDS011;22411;53.016;18.632;2022-09-09T16:16:45;22.77;;;17.38;;
36379;SDS011;22411;53.016;18.632;2022-09-09T16:19:12;22.48;;;17.60;;
36379;SDS011;22411;53.016;18.632;2022-09-09T16:21:40;22.23;;;17.42;;
36379;SDS011;22411;53.016;18.632;2022-09-09T16:24:09;22.60;;;17.35;;
36379;SDS011;22411;53.016;18.632;2022-09-09T16:26:40;22.37;;;18.13;;
36379;SDS011;22411;53.016;18.632;2022-09-09T16:29:11;22.33;;;18.10;;
36379;SDS011;22411;53.016;18.632;2022-09-09T16:31:38;24.52;;;18.13;;
36379;SDS011;22411;53.016;18.632;2022-09-09T16:34:08;21.50;;;17.00;;
36379;SDS011;22411;53.016;18.632;2022-09-09T16:36:38;22.67;;;17.45;;
36379;SDS011;22411;53.016;18.632;2022-09-09T16:39:14;23.67;;;18.05;;
36379;SDS011;22411;53.016;18.632;2022-09-09T16:41:53;25.10;;;17.08;;
36379;SDS011;22411;53.016;18.632;2022-09-09T16:44:20;22.02;;;18.08;;
36379;SDS011;22411;53.016;18.632;2022-09-09T16:46:46;22.52;;;16.77;;
36379;SDS011;22411;53.016;18.632;2022-09-09T16:49:15;23.15;;;16.92;;
36379;SDS011;22411;53.016;18.632;2022-09-09T16:51:43;23.58;;;17.63;;
36379;SDS011;22411;53.016;18.632;2022-09-09T16:54:22;19.55;;;16.27;;
36379;SDS011;22411;53.016;18.632;2022-09-09T16:56:54;20.58;;;16.00;;
36379;SDS011;22411;53.016;18.632;2022-09-09T16:59:27;23.70;;;17.38;;
36379;SDS011;22411;53.016;18.632;2022-09-09T17:01:59;22.02;;;17.65;;
36379;SDS011;22411;53.016;18.632;2022-09-09T17:04:34;21.42;;;17.10;;
36379;SDS011;22411;53.016;18.632;2022-09-09T17:07:04;22.23;;;17.83;;
36379;SDS011;22411;53.016;18.632;2022-09-09T17:09:32;22.95;;;17.75;;
36379;SDS011;22411;53.016;18.632;2022-09-09T17:12:00;21.80;;;17.63;;
36379;SDS011;22411;53.016;18.632;2022-09-09T17:14:32;23.60;;;19.10;;
36379;SDS011;22411;53.016;18.632;2022-09-09T17:17:02;26.30;;;18.63;;
36379;SDS011;22411;53.016;18.632;2022-09-09T17:19:30;21.83;;;17.88;;
36379;SDS011;22411;53.016;18.632;2022-09-09T17:21:58;26.58;;;19.40;;